sensor_id;sensor_type;location;lat;lon;timestamp;pressure;altitude;pressure_sealevel;temperature;humidity
2214;BME280;1113;42.018;23.986;2023-02-13T20:55:42;94096.53;;;-1.83;100.00
2214;BME280;1113;42.018;23.986;2023-02-13T20:58:09;94090.13;;;-1.86;100.00
2214;BME280;1113;42.018;23.986;2023-02-13T21:00:36;94084.88;;;-1.91;100.00
2214;BME280;1113;42.018;23.986;2023-02-13T21:03:03;94083.69;;;-1.82;100.00
2214;BME280;1113;42.018;23.986;2023-02-13T21:05:29;94078.03;;;-1.71;100.00
2214;BME280;1113;42.018;23.986;2023-02-13T21:07:56;94080.78;;;-1.99;100.00
2214;BME280;1113;42.018;23.986;2023-02-13T21:10:23;94068.66;;;-2.16;100.00
2214;BME280;1113;42.018;23.986;2023-02-13T21:12:51;94067.50;;;-2.14;100.00
2214;BME280;1113;42.018;23.986;2023-02-13T21:15:18;94064.81;;;-1.93;100.00
2214;BME280;1113;42.018;23.986;2023-02-13T21:17:45;94064.78;;;-2.26;100.00
2214;BME280;1113;42.018;23.986;2023-02-13T21:20:11;94072.56;;;-2.14;100.00
2214;BME280;1113;42.018;23.986;2023-02-13T21:22:38;94071.00;;;-2.28;100.00
2214;BME280;1113;42.018;23.986;2023-02-13T21:25:05;94069.25;;;-2.14;100.00
2214;BME280;1113;42.018;23.986;2023-02-13T21:27:32;94084.22;;;-2.19;100.00
2214;BME280;1113;42.018;23.986;2023-02-13T21:30:01;94076.31;;;-1.97;100.00
2214;BME280;1113;42.018;23.986;2023-02-13T21:32:27;94074.16;;;-2.06;100.00
2214;BME280;1113;42.018;23.986;2023-02-13T21:34:54;94069.63;;;-2.31;100.00
2214;BME280;1113;42.018;23.986;2023-02-13T21:37:21;94069.97;;;-2.53;100.00
2214;BME280;1113;42.018;23.986;2023-02-13T21:39:48;94066.88;;;-2.49;100.00
2214;BME280;1113;42.018;23.986;2023-02-13T21:42:15;94070.97;;;-2.41;100.00
2214;BME280;1113;42.018;23.986;2023-02-13T21:44:41;94074.66;;;-2.44;100.00
2214;BME280;1113;42.018;23.986;2023-02-13T21:47:10;94071.91;;;-2.56;100.00
2214;BME280;1113;42.018;23.986;2023-02-13T21:49:36;94064.91;;;-2.53;100.00
2214;BME280;1113;42.018;23.986;2023-02-13T21:52:03;94065.81;;;-2.74;100.00
2214;BME280;1113;42.018;23.986;2023-02-13T21:54:35;94059.44;;;-2.64;100.00
2214;BME280;1113;42.018;23.986;2023-02-13T21:57:04;94053.72;;;-2.86;100.00
2214;BME280;1113;42.018;23.986;2023-02-13T21:59:31;94064.03;;;-2.87;100.00
2214;BME280;1113;42.018;23.986;2023-02-13T22:01:57;94058.03;;;-2.79;100.00
2214;BME280;1113;42.018;23.986;2023-02-13T22:04:27;94061.75;;;-2.62;100.00
2214;BME280;1113;42.018;23.986;2023-02-13T22:06:54;94055.25;;;-2.91;100.00
2214;BME280;1113;42.018;23.986;2023-02-13T22:09:21;94046.50;;;-2.95;100.00
2214;BME280;1113;42.018;23.986;2023-02-13T22:11:51;94040.09;;;-2.98;100.00
2214;BME280;1113;42.018;23.986;2023-02-13T22:14:19;94038.16;;;-2.96;100.00
2214;BME280;1113;42.018;23.986;2023-02-13T22:16:48;94037.59;;;-2.84;100.00
2214;BME280;1113;42.018;23.986;2023-02-13T22:19:16;94033.13;;;-2.82;100.00
2214;BME280;1113;42.018;23.986;2023-02-13T22:21:44;94031.97;;;-2.87;100.00
2214;BME280;1113;42.018;23.986;2023-02-13T22:24:11;94040.47;;;-3.01;100.00
2214;BME280;1113;42.018;23.986;2023-02-13T22:26:39;94042.69;;;-3.19;100.00
2214;BME280;1113;42.018;23.986;2023-02-13T22:29:09;94038.09;;;-3.09;100.00
2214;BME280;1113;42.018;23.986;2023-02-13T22:31:36;94036.56;;;-3.03;100.00
2214;BME280;1113;42.018;23.986;2023-02-13T22:34:03;94028.84;;;-3.36;100.00
2214;BME280;1113;42.018;23.986;2023-02-13T22:36:30;94037.97;;;-3.35;100.00
2214;BME280;1113;42.018;23.986;2023-02-13T22:38:59;94029.38;;;-3.47;100.00
2214;BME280;1113;42.018;23.986;2023-02-13T22:41:26;94035.53;;;-3.57;100.00
2214;BME280;1113;42.018;23.986;2023-02-13T22:43:53;94028.41;;;-3.46;100.00
2214;BME280;1113;42.018;23.986;2023-02-13T22:46:21;94020.84;;;-3.40;100.00
2214;BME280;1113;42.018;23.986;2023-02-13T22:48:49;94020.56;;;-3.58;100.00
2214;BME280;1113;42.018;23.986;2023-02-13T22:51:18;94023.59;;;-3.69;100.00
2214;BME280;1113;42.018;23.986;2023-02-13T22:53:45;94026.44;;;-3.79;100.00
2214;BME280;1113;42.018;23.986;2023-02-13T22:56:14;94023.97;;;-3.72;100.00
2214;BME280;1113;42.018;23.986;2023-02-13T22:58:41;94014.41;;;-3.49;100.00
2214;BME280;1113;42.018;23.986;2023-02-13T23:01:09;94012.06;;;-3.51;100.00
2214;BME280;1113;42.018;23.986;2023-02-13T23:03:36;94016.91;;;-3.56;100.00
2214;BME280;1113;42.018;23.986;2023-02-13T23:06:04;94005.66;;;-3.81;100.00
2214;BME280;1113;42.018;23.986;2023-02-13T23:08:31;94015.31;;;-3.91;100.00
2214;BME280;1113;42.018;23.986;2023-02-13T23:11:03;94006.97;;;-3.92;100.00
2214;BME280;1113;42.018;23.986;2023-02-13T23:13:49;94002.97;;;-3.79;100.00
2214;BME280;1113;42.018;23.986;2023-02-13T23:16:16;93999.00;;;-3.95;100.00
2214;BME280;1113;42.018;23.986;2023-02-13T23:18:43;93997.03;;;-3.65;100.00
2214;BME280;1113;42.018;23.986;2023-02-13T23:21:09;94002.47;;;-3.96;100.00
2214;BME280;1113;42.018;23.986;2023-02-13T23:23:36;93994.31;;;-3.98;100.00
2214;BME280;1113;42.018;23.986;2023-02-13T23:26:04;93994.09;;;-4.03;100.00
2214;BME280;1113;42.018;23.986;2023-02-13T23:28:31;93993.44;;;-4.12;100.00
2214;BME280;1113;42.018;23.986;2023-02-13T23:31:00;93992.56;;;-3.98;100.00
2214;BME280;1113;42.018;23.986;2023-02-13T23:33:27;93988.28;;;-4.04;100.00
2214;BME280;1113;42.018;23.986;2023-02-13T23:35:54;93997.31;;;-4.16;100.00
2214;BME280;1113;42.018;23.986;2023-02-13T23:38:22;93986.66;;;-4.11;100.00
2214;BME280;1113;42.018;23.986;2023-02-13T23:40:48;93989.47;;;-4.21;100.00
2214;BME280;1113;42.018;23.986;2023-02-13T23:43:15;93993.91;;;-4.02;100.00
2214;BME280;1113;42.018;23.986;2023-02-13T23:45:42;93987.31;;;-4.24;100.00
2214;BME280;1113;42.018;23.986;2023-02-13T23:48:10;93987.69;;;-4.06;100.00
2214;BME280;1113;42.018;23.986;2023-02-13T23:50:37;93989.41;;;-4.06;100.00
2214;BME280;1113;42.018;23.986;2023-02-13T23:53:04;93986.47;;;-4.10;100.00
2214;BME280;1113;42.018;23.986;2023-02-13T23:55:31;93978.53;;;-4.35;100.00
2214;BME280;1113;42.018;23.986;2023-02-13T23:57:58;93978.72;;;-4.36;100.00
